createdAt,value
2023-05-25T00:04:48.699Z,99471.05
2023-05-25T00:09:51.910Z,99468.81
2023-05-25T00:14:55.290Z,99468.60
2023-05-25T00:20:09.508Z,99473.45
2023-05-25T00:25:13.037Z,99476.95
2023-05-25T00:30:16.356Z,99479.73
2023-05-25T00:35:19.581Z,99485.52
2023-05-25T00:40:23.156Z,99485.16
2023-05-25T00:45:26.365Z,99488.31
2023-05-25T00:50:43.766Z,99492.10
2023-05-25T00:55:59.015Z,99490.26
2023-05-25T01:01:04.072Z,99491.17
2023-05-25T01:06:16.038Z,99489.38
2023-05-25T01:11:28.746Z,99490.10
2023-05-25T01:16:32.441Z,99487.73
2023-05-25T01:22:05.475Z,99488.10
2023-05-25T01:27:19.427Z,99487.13
2023-05-25T01:32:23.019Z,99489.15
2023-05-25T01:37:28.190Z,99491.58
2023-05-25T01:42:32.845Z,99490.48
2023-05-25T01:48:33.349Z,99492.77
2023-05-25T01:54:14.143Z,99494.83
2023-05-25T01:59:21.781Z,99488.88
2023-05-25T02:04:26.455Z,99496.15
2023-05-25T02:09:30.555Z,99487.58
2023-05-25T02:14:35.838Z,99491.19
2023-05-25T02:19:38.919Z,99486.71
2023-05-25T02:24:42.030Z,99484.52
2023-05-25T02:29:45.813Z,99476.23
2023-05-25T02:34:49.180Z,99471.35
2023-05-25T02:39:53.717Z,99472.75
2023-05-25T02:44:57.104Z,99470.00
2023-05-25T02:50:00.415Z,99475.28
2023-05-25T02:55:04.631Z,99473.83
2023-05-25T03:00:12.624Z,99474.00
2023-05-25T03:05:16.835Z,99471.55
2023-05-25T03:10:20.659Z,99474.14
2023-05-25T03:15:24.411Z,99477.91
2023-05-25T03:20:28.412Z,99478.56
2023-05-25T03:25:32.664Z,99485.12
2023-05-25T03:30:36.405Z,99490.34
2023-05-25T03:35:39.609Z,99485.73
2023-05-25T03:40:43.037Z,99492.63
2023-05-25T03:45:46.574Z,99492.73
2023-05-25T03:50:50.149Z,99493.93
2023-05-25T03:55:53.305Z,99501.13
2023-05-25T04:00:56.734Z,99505.21
2023-05-25T04:06:00.780Z,99511.33
2023-05-25T04:11:06.545Z,99510.52
2023-05-25T04:16:10.400Z,99519.22
2023-05-25T04:21:13.843Z,99517.64
2023-05-25T04:26:18.390Z,99519.34
2023-05-25T04:31:25.155Z,99524.59
2023-05-25T04:36:47.815Z,99526.87
2023-05-25T04:41:53.133Z,99531.01
2023-05-25T04:46:56.857Z,99536.65
2023-05-25T04:52:07.447Z,99543.61
2023-05-25T04:57:11.465Z,99549.25
2023-05-25T05:02:14.654Z,99548.84
2023-05-25T05:07:18.490Z,99548.29
2023-05-25T05:12:21.826Z,99556.02
2023-05-25T05:17:29.233Z,99562.36
2023-05-25T05:22:33.525Z,99563.09
2023-05-25T05:33:29.844Z,99576.77
2023-05-25T05:38:33.360Z,99580.19
2023-05-25T05:43:36.668Z,99587.39
2023-05-25T05:48:39.776Z,99588.31
2023-05-25T05:53:42.871Z,99585.48
2023-05-25T05:58:47.633Z,99585.55
2023-05-25T06:03:53.108Z,99587.77
2023-05-25T06:08:56.537Z,99587.04
2023-05-25T06:13:59.962Z,99587.34
2023-05-25T06:19:03.637Z,99594.23
2023-05-25T06:24:07.390Z,99606.81
2023-05-25T06:29:10.593Z,99611.73
2023-05-25T06:34:14.576Z,99616.81
2023-05-25T06:39:17.816Z,99624.60
2023-05-25T06:44:21.388Z,99624.41
2023-05-25T06:49:29.436Z,99627.04
2023-05-25T06:54:33.193Z,99622.52
2023-05-25T06:59:36.267Z,99623.02
2023-05-25T07:04:39.380Z,99625.73
2023-05-25T07:09:42.446Z,99632.73
2023-05-25T07:14:48.497Z,99640.30
2023-05-25T07:19:51.629Z,99640.52
2023-05-25T07:24:54.689Z,99640.25
2023-05-25T07:33:29.920Z,99635.23
2023-05-25T07:38:33.228Z,99634.64
2023-05-25T07:43:37.649Z,99633.52
2023-05-25T07:48:40.787Z,99636.33
2023-05-25T07:53:43.862Z,99637.71
2023-05-25T07:58:47.017Z,99639.86
2023-05-25T08:03:50.582Z,99643.16
2023-05-25T08:08:53.713Z,99645.80
2023-05-25T08:13:58.145Z,99646.30
2023-05-25T08:19:01.809Z,99642.05
2023-05-25T08:24:08.614Z,99638.55
2023-05-25T08:29:11.753Z,99641.17
2023-05-25T08:34:15.265Z,99644.48
2023-05-25T08:39:19.137Z,99644.13
2023-05-25T08:44:22.535Z,99643.05
2023-05-25T08:49:29.711Z,99644.59
2023-05-25T08:54:37.482Z,99644.29
2023-05-25T09:00:17.940Z,99641.06
2023-05-25T09:05:24.694Z,99639.63
2023-05-25T09:10:30.720Z,99643.73
2023-05-25T09:15:34.412Z,99647.30
2023-05-25T09:20:37.760Z,99653.20
2023-05-25T09:25:41.532Z,99658.91
2023-05-25T09:30:48.990Z,99657.67
2023-05-25T09:35:52.497Z,99663.80
2023-05-25T09:40:56.275Z,99667.27
2023-05-25T09:45:59.560Z,99673.27
2023-05-25T09:51:04.850Z,99668.23
2023-05-25T09:56:07.996Z,99668.48
2023-05-25T10:01:11.920Z,99660.55
2023-05-25T10:06:16.416Z,99653.77
2023-05-25T10:11:22.815Z,99648.73
2023-05-25T10:16:29.703Z,99646.55
2023-05-25T10:21:37.002Z,99647.42
2023-05-25T10:26:42.658Z,99646.88
2023-05-25T10:31:46.423Z,99648.62
2023-05-25T10:36:51.385Z,99647.02
2023-05-25T10:41:55.260Z,99648.00
2023-05-25T10:47:02.235Z,99643.05
2023-05-25T10:52:05.730Z,99639.41
2023-05-25T10:57:11.518Z,99641.80
2023-05-25T11:02:16.191Z,99639.34
2023-05-25T11:37:55.517Z,99632.46
2023-05-25T11:43:00.933Z,99625.98
2023-05-25T11:48:05.404Z,99629.98
2023-05-25T11:53:08.757Z,99627.09
2023-05-25T11:58:11.909Z,99626.77
2023-05-25T12:03:33.851Z,99627.63
2023-05-25T12:08:38.246Z,99631.41
2023-05-25T12:13:41.539Z,99625.06
2023-05-25T12:18:44.661Z,99623.18
2023-05-25T12:23:48.715Z,99620.34
2023-05-25T12:29:05.929Z,99616.97
2023-05-25T12:34:18.546Z,99623.55
2023-05-25T12:39:30.304Z,99629.52
2023-05-25T13:33:30.056Z,99576.92
2023-05-25T13:38:37.253Z,99578.17
2023-05-25T13:43:40.487Z,99581.48
2023-05-25T13:48:47.531Z,99578.50
2023-05-25T13:53:50.570Z,99579.73
2023-05-25T13:58:54.621Z,99577.11
2023-05-25T14:04:00.007Z,99576.23
2023-05-25T14:09:03.543Z,99573.73
2023-05-25T14:14:16.513Z,99572.25
2023-05-25T14:19:26.659Z,99574.82
2023-05-25T14:24:29.768Z,99580.29
2023-05-25T14:35:09.697Z,99575.95
2023-05-25T14:40:13.654Z,99577.49
2023-05-25T14:45:18.463Z,99575.65
2023-05-25T14:50:21.608Z,99570.08
2023-05-25T14:55:25.089Z,99566.23
2023-05-25T15:00:29.168Z,99563.60
2023-05-25T15:05:32.264Z,99561.86
2023-05-25T15:10:35.525Z,99563.50
2023-05-25T15:15:38.805Z,99564.11
2023-05-25T15:20:47.955Z,99558.77
2023-05-25T15:25:51.208Z,99552.00
2023-05-25T15:30:54.607Z,99550.38
2023-05-25T15:35:57.959Z,99548.13
2023-05-25T15:41:01.213Z,99547.59
2023-05-25T15:46:04.707Z,99546.45
2023-05-25T15:51:07.856Z,99545.61
2023-05-25T15:56:11.265Z,99542.05
2023-05-25T16:01:14.618Z,99538.98
2023-05-25T16:06:17.812Z,99538.82
2023-05-25T16:11:21.019Z,99534.27
2023-05-25T16:16:24.690Z,99537.69
2023-05-25T16:21:27.864Z,99531.32
2023-05-25T16:26:30.986Z,99538.09
2023-05-25T16:31:34.898Z,99542.48
2023-05-25T16:36:38.100Z,99546.64
2023-05-25T16:41:41.477Z,99543.14
2023-05-25T16:46:46.119Z,99540.51
2023-05-25T16:51:49.377Z,99540.60
2023-05-25T16:56:52.620Z,99541.81
2023-05-25T17:01:56.540Z,99535.11
2023-05-25T17:06:59.812Z,99537.91
2023-05-25T17:12:03.810Z,99539.34
2023-05-25T17:17:07.057Z,99544.23
2023-05-25T17:22:10.772Z,99556.73
2023-05-25T17:27:14.082Z,99567.95
2023-05-25T17:38:18.641Z,99565.02
2023-05-25T17:43:21.709Z,99562.19
2023-05-25T17:48:24.811Z,99562.73
2023-05-25T17:53:27.996Z,99562.66
2023-05-25T17:58:39.221Z,99560.09
2023-05-25T18:03:43.165Z,99558.86
2023-05-25T18:08:46.496Z,99553.55
2023-05-25T18:13:49.985Z,99551.39
2023-05-25T18:18:52.989Z,99546.89
2023-05-25T18:23:56.135Z,99544.61
2023-05-25T18:28:59.290Z,99544.50
2023-05-25T18:34:09.507Z,99548.25
2023-05-25T18:39:12.717Z,99552.29
2023-05-25T18:44:15.916Z,99559.83
2023-05-25T18:49:19.225Z,99567.66
2023-05-25T18:54:22.573Z,99569.77
2023-05-25T18:59:26.168Z,99577.88
2023-05-25T19:04:29.466Z,99580.63
2023-05-25T19:09:32.700Z,99585.52
2023-05-25T19:14:35.869Z,99588.13
2023-05-25T19:19:39.021Z,99589.09
2023-05-25T19:24:44.286Z,99594.17
2023-05-25T19:33:33.471Z,99591.54
2023-05-25T19:38:41.154Z,99597.61
2023-05-25T19:43:45.839Z,99600.20
2023-05-25T19:48:49.021Z,99597.62
2023-05-25T19:53:52.561Z,99600.00
2023-05-25T19:58:55.907Z,99599.66
2023-05-25T20:03:59.070Z,99593.91
2023-05-25T20:09:48.005Z,99592.56
2023-05-25T20:14:51.293Z,99597.09
2023-05-25T20:19:56.540Z,99595.69
2023-05-25T20:25:01.139Z,99590.63
2023-05-25T20:33:33.132Z,99587.80
2023-05-25T20:38:36.279Z,99588.69
2023-05-25T20:43:39.994Z,99591.80
2023-05-25T20:48:46.963Z,99593.77
2023-05-25T20:53:50.214Z,99595.67
2023-05-25T20:58:53.723Z,99598.95
2023-05-25T21:03:57.244Z,99601.20
2023-05-25T21:09:00.990Z,99602.85
2023-05-25T21:14:04.674Z,99604.36
2023-05-25T21:19:07.820Z,99599.56
2023-05-25T21:24:11.120Z,99596.80
2023-05-25T21:29:14.379Z,99598.10
2023-05-25T21:34:17.747Z,99599.95
2023-05-25T21:39:21.042Z,99601.38
2023-05-25T21:44:27.382Z,99602.38
2023-05-25T21:49:30.845Z,99602.98
2023-05-25T21:54:33.927Z,99605.32
2023-05-25T21:59:37.240Z,99600.13
2023-05-25T22:04:46.909Z,99600.91
2023-05-25T22:09:50.135Z,99602.61
2023-05-25T22:14:53.355Z,99602.83
2023-05-25T22:20:07.332Z,99604.53
2023-05-25T22:25:13.519Z,99605.36
2023-05-25T22:35:54.038Z,99596.09
2023-05-25T22:40:57.440Z,99606.82
2023-05-25T22:46:00.711Z,99610.05
2023-05-25T22:51:04.301Z,99607.77
2023-05-25T22:56:07.777Z,99608.41
2023-05-25T23:01:10.911Z,99599.16
2023-05-25T23:06:14.134Z,99594.84
2023-05-25T23:11:17.543Z,99591.02
2023-05-25T23:16:21.318Z,99592.66
2023-05-25T23:21:24.991Z,99600.55
2023-05-25T23:26:28.274Z,99595.55
2023-05-25T23:31:31.486Z,99594.24
2023-05-25T23:36:34.884Z,99595.00
2023-05-25T23:41:38.108Z,99596.83
2023-05-25T23:46:41.272Z,99595.92
2023-05-25T23:51:44.570Z,99592.55
2023-05-25T23:56:47.744Z,99593.18
